Date,TemperatureHighF,TemperatureAvgF,TemperatureLowF,DewpointHighF,DewpointAvgF,DewpointLowF,HumidityHigh,HumidityAvg,HumidityLow,PressureMaxIn,PressureMinIn,WindSpeedMaxMPH,WindSpeedAvgMPH,GustSpeedMaxMPH,PrecipitationSumIn
2013-2-1,37.6,31.5,20.8,25.6,12.0,3.6,67,45,28,30.44,29.82,29,5,29,0.00
2013-2-2,38.5,27.5,16.9,27.7,15.4,6.5,89,63,35,30.44,30.04,14,2,14,0.00
2013-2-3,42.8,34.7,27.0,34.1,26.5,17.6,92,73,50,30.04,29.87,13,2,13,0.01
2013-2-4,41.9,32.9,20.8,26.4,20.3,15.5,86,61,42,30.17,29.97,8,2,8,0.00
2013-2-5,60.6,47.7,39.4,39.9,33.0,25.0,65,57,44,29.98,29.87,11,2,11,0.00
2013-2-6,57.2,42.6,28.6,39.4,32.2,26.8,93,69,41,30.34,29.93,10,2,10,0.00
2013-2-7,45.7,37.7,28.2,36.6,30.8,25.1,93,77,60,30.43,30.14,8,1,8,0.11
2013-2-8,50.4,41.8,36.5,44.8,37.0,26.6,93,84,58,30.14,29.75,22,4,22,0.57
2013-2-9,49.5,37.7,25.3,27.0,22.1,18.0,78,55,30,30.39,29.95,12,3,12,0.00
2013-2-10,51.4,35.2,19.0,28.5,23.1,17.1,93,65,35,30.51,30.25,7,1,7,0.00
2013-2-11,62.1,51.9,40.1,60.0,49.0,28.5,93,90,54,30.25,29.81,14,4,14,0.06
2013-2-12,62.6,51.5,36.5,49.4,34.6,30.1,87,55,32,30.02,29.83,13,2,13,0.00
2013-2-13,50.4,43.2,37.0,42.2,36.9,30.4,93,79,47,29.93,29.63,11,2,11,0.08
2013-2-14,54.3,40.2,27.3,44.8,33.6,25.6,93,79,46,30.05,29.80,7,2,7,0.01
2013-2-15,65.3,47.9,29.1,43.6,34.9,27.4,93,65,32,30.07,29.90,19,3,19,0.00
2013-2-16,42.4,35.9,29.5,37.8,33.0,22.1,93,89,67,30.03,29.84,10,2,10,0.20
2013-2-17,34.9,27.5,19.6,22.4,12.7,4.4,92,56,31,30.25,29.87,21,3,21,0.00
2013-2-18,50.9,33.3,15.1,23.0,15.9,7.9,82,52,26,30.42,30.22,10,2,10,0.00
2013-2-19,50.2,42.1,36.3,48.2,35.0,20.7,93,77,46,30.22,29.77,14,4,14,0.11
2013-2-20,48.6,38.5,29.3,34.5,20.8,14.7,93,50,31,30.15,29.89,17,3,17,0.00
2013-2-21,46.0,34.4,23.5,23.3,18.4,14.5,76,53,36,30.31,30.13,13,2,13,0.00
2013-2-22,40.3,35.7,32.4,34.2,25.4,17.6,93,66,52,30.37,30.19,7,2,7,0.01
2013-2-23,43.5,38.9,35.2,41.6,37.1,33.4,93,93,93,30.19,29.81,8,2,8,0.15
2013-2-24,57.2,45.2,34.7,46.9,38.6,23.8,93,79,57,30.10,29.79,15,2,15,0.01
2013-2-25,45.5,34.5,24.6,27.0,23.8,20.2,88,66,45,30.23,30.10,8,1,8,0.00
2013-2-26,52.5,39.6,26.1,50.6,37.6,23.5,93,92,88,30.23,29.56,17,2,17,0.48
2013-2-27,61.9,48.6,35.2,50.6,41.9,33.4,93,80,48,29.72,29.55,13,2,13,0.01
2013-2-28,51.3,43.5,36.7,41.6,32.9,27.1,93,68,45,29.78,29.64,16,3,16,0.01